Time;durP1;ratioP1;P1;durP2;ratioP2;P2;SDS_P1;SDS_P2;PMS_P1;PMS_P2;Temp;Humidity;BMP_temperature;BMP_pressure;BME280_temperature;BME280_humidity;BME280_pressure;Samples;Min_cycle;Max_cycle;Signal;HPM_P1;HPM_P2
2023/05/25 00:01:33;;;;;;;5.93;2.10;;;10.70;99.90;;;;;;4977573;28;20216;-83
2023/05/25 00:03:59;;;;;;;5.97;2.17;;;10.60;99.90;;;;;;5011491;28;20215;-85
2023/05/25 00:06:26;;;;;;;3.47;3.03;;;10.70;99.90;;;;;;4993763;28;20215;-82
2023/05/25 00:08:54;;;;;;;3.07;1.87;;;10.70;99.90;;;;;;4977636;28;20219;-86
2023/05/25 00:11:22;;;;;;;5.53;3.13;;;10.60;99.90;;;;;;4962474;28;20729;-87
2023/05/25 00:13:48;;;;;;;3.40;1.67;;;10.60;99.90;;;;;;4993811;28;20219;-84
2023/05/25 00:16:14;;;;;;;3.17;2.03;;;10.60;99.90;;;;;;4993772;28;20223;-84
2023/05/25 00:18:40;;;;;;;4.87;2.17;;;10.60;99.90;;;;;;4977484;28;20274;-83
2023/05/25 00:21:06;;;;;;;7.60;2.23;;;10.60;99.90;;;;;;4993778;28;20214;-84
2023/05/25 00:23:32;;;;;;;1.57;1.47;;;10.50;99.90;;;;;;4993746;28;20462;-88
2023/05/25 00:25:58;;;;;;;2.83;1.83;;;10.50;99.90;;;;;;4993892;28;20265;-84
2023/05/25 00:28:24;;;;;;;3.93;2.23;;;10.40;99.90;;;;;;4993477;28;20219;-82
2023/05/25 00:30:50;;;;;;;4.13;1.80;;;10.50;99.90;;;;;;4976983;28;20720;-88
2023/05/25 00:33:16;;;;;;;1.73;1.63;;;10.50;99.90;;;;;;4961414;28;20744;-82
2023/05/25 00:35:42;;;;;;;4.93;2.53;;;10.40;99.90;;;;;;4976694;28;20688;-86
2023/05/25 00:38:17;;;;;;;3.00;1.70;;;10.40;99.90;;;;;;5011333;28;20640;-82
2023/05/25 00:40:44;;;;;;;3.60;2.33;;;10.40;99.90;;;;;;4960074;28;20353;-86
2023/05/25 00:43:11;;;;;;;5.93;2.03;;;10.40;99.90;;;;;;4977101;28;20850;-86
2023/05/25 00:45:38;;;;;;;2.70;2.50;;;10.40;99.90;;;;;;5010584;28;20234;-88
2023/05/25 00:48:04;;;;;;;2.90;1.37;;;10.40;99.90;;;;;;5010342;28;20217;-84
2023/05/25 00:50:41;;;;;;;4.17;2.50;;;10.40;99.90;;;;;;5010699;28;20187;-83
2023/05/25 00:53:09;;;;;;;4.77;2.27;;;10.30;99.90;;;;;;4993240;28;20214;-84
2023/05/25 00:55:51;;;;;;;2.07;1.77;;;10.20;99.90;;;;;;5010341;28;20239;-88
2023/05/25 00:58:20;;;;;;;17.47;2.93;;;10.20;99.90;;;;;;4992278;28;20305;-89
2023/05/25 01:00:49;;;;;;;5.10;1.93;;;10.30;99.90;;;;;;4992934;28;20233;-86
2023/05/25 01:03:20;;;;;;;6.43;2.10;;;10.30;99.90;;;;;;5010384;28;20672;-90
2023/05/25 01:05:47;;;;;;;2.63;2.43;;;10.20;99.90;;;;;;4992701;28;20182;-90
2023/05/25 01:08:16;;;;;;;3.27;2.40;;;10.20;99.90;;;;;;4993440;28;20265;-85
2023/05/25 01:10:44;;;;;;;3.20;2.20;;;10.20;99.90;;;;;;5010592;28;20219;-85
2023/05/25 01:13:13;;;;;;;8.23;3.77;;;10.20;99.90;;;;;;5009118;28;20222;-83
2023/05/25 01:15:40;;;;;;;7.87;2.83;;;10.20;99.90;;;;;;4992362;28;20243;-82
2023/05/25 01:18:05;;;;;;;8.27;3.37;;;10.30;99.90;;;;;;4976503;28;20215;-83
2023/05/25 01:20:31;;;;;;;4.70;2.70;;;10.20;99.90;;;;;;4992318;28;20233;-85
2023/05/25 01:26:14;;;;;;;5.00;2.63;;;10.20;99.90;;;;;;5010145;28;20218;-85
2023/05/25 01:28:45;;;;;;;6.53;2.83;;;10.20;99.90;;;;;;5009640;28;20230;-88
2023/05/25 01:31:14;;;;;;;3.07;2.53;;;10.20;99.90;;;;;;4991133;28;20239;-83
2023/05/25 01:33:43;;;;;;;11.00;3.50;;;10.10;99.90;;;;;;4992021;28;20222;-84
2023/05/25 01:36:09;;;;;;;3.07;2.77;;;10.10;99.90;;;;;;4992358;28;20305;-87
2023/05/25 01:38:37;;;;;;;2.27;2.00;;;9.90;99.90;;;;;;4976020;28;20274;-83
2023/05/25 01:41:02;;;;;;;8.93;2.57;;;10.00;99.90;;;;;;4976738;28;20194;-84
2023/05/25 01:43:31;;;;;;;8.30;2.57;;;9.90;99.90;;;;;;4992483;28;20802;-88
2023/05/25 01:46:35;;;;;;;3.03;1.73;;;9.90;99.90;;;;;;4992358;28;20245;-88
2023/05/25 01:49:22;;;;;;;1.13;1.13;;;9.80;99.90;;;;;;4991866;28;20223;-83
2023/05/25 01:52:11;;;;;;;3.53;2.40;;;9.80;99.90;;;;;;5008947;28;20375;-87
2023/05/25 01:54:42;;;;;;;2.43;1.30;;;9.60;99.90;;;;;;4991433;28;20226;-83
2023/05/25 01:57:14;;;;;;;4.63;2.63;;;9.60;99.90;;;;;;4991467;28;20227;-89
2023/05/25 01:59:44;;;;;;;1.47;1.33;;;9.60;99.90;;;;;;4990893;28;20172;-86
2023/05/25 02:02:16;;;;;;;5.53;2.50;;;9.50;99.90;;;;;;5009599;28;20175;-85
2023/05/25 02:04:42;;;;;;;4.50;2.67;;;9.50;99.90;;;;;;5009321;28;20218;-83
2023/05/25 02:07:08;;;;;;;2.10;1.97;;;9.50;99.90;;;;;;5008818;28;20314;-83
2023/05/25 02:09:34;;;;;;;3.03;2.63;;;9.50;99.90;;;;;;4992478;28;20298;-84
2023/05/25 02:12:00;;;;;;;6.13;2.90;;;9.50;99.90;;;;;;4979708;28;20653;-85
2023/05/25 02:14:25;;;;;;;3.83;3.47;;;9.70;99.90;;;;;;4996437;28;20649;-85
2023/05/25 02:16:51;;;;;;;4.67;3.53;;;9.70;99.90;;;;;;4995655;28;20231;-86
2023/05/25 02:19:17;;;;;;;3.30;2.83;;;9.80;99.90;;;;;;5013276;28;20688;-86
2023/05/25 02:21:43;;;;;;;3.43;2.33;;;9.70;99.90;;;;;;4979116;28;20226;-82
2023/05/25 02:24:09;;;;;;;4.67;2.77;;;9.70;99.90;;;;;;4995933;28;20223;-85
2023/05/25 02:26:36;;;;;;;2.90;2.37;;;9.80;99.90;;;;;;4979344;28;20202;-81
2023/05/25 02:29:03;;;;;;;4.47;2.67;;;9.90;99.90;;;;;;4996242;28;20204;-87
2023/05/25 02:31:29;;;;;;;4.73;3.80;;;9.90;99.90;;;;;;5012659;28;20235;-87
2023/05/25 02:33:55;;;;;;;7.07;3.37;;;9.90;99.90;;;;;;4995180;28;20670;-84
2023/05/25 02:36:21;;;;;;;6.27;2.87;;;10.00;99.90;;;;;;5012863;28;20242;-83
2023/05/25 02:38:48;;;;;;;3.17;2.67;;;10.00;99.90;;;;;;4995257;28;20552;-87
2023/05/25 02:41:20;;;;;;;6.00;3.13;;;10.10;99.90;;;;;;4964121;28;20179;-85
2023/05/25 02:43:46;;;;;;;3.60;2.50;;;10.00;99.90;;;;;;5012713;28;20219;-87
2023/05/25 02:46:12;;;;;;;2.20;2.00;;;10.10;99.90;;;;;;4995332;28;20595;-85
2023/05/25 02:48:38;;;;;;;2.80;2.57;;;10.10;99.90;;;;;;4995370;28;20223;-84
2023/05/25 02:51:04;;;;;;;2.47;2.20;;;10.10;99.90;;;;;;4979029;28;20345;-83
2023/05/25 02:53:29;;;;;;;6.60;3.97;;;10.10;99.90;;;;;;4979435;28;20601;-83
2023/05/25 02:55:55;;;;;;;4.83;2.93;;;10.10;99.90;;;;;;4978897;28;20231;-86
2023/05/25 02:58:21;;;;;;;2.27;1.80;;;10.00;99.90;;;;;;4995072;28;20227;-84
2023/05/25 03:00:48;;;;;;;3.27;2.97;;;10.10;99.90;;;;;;4962743;28;20627;-83
2023/05/25 03:03:14;;;;;;;2.67;2.33;;;10.10;99.90;;;;;;5011322;28;20430;-82
2023/05/25 03:05:39;;;;;;;3.13;2.87;;;10.20;99.90;;;;;;4994811;28;20229;-84
2023/05/25 03:08:05;;;;;;;2.57;2.03;;;10.20;99.90;;;;;;4963550;28;20780;-84
2023/05/25 03:10:31;;;;;;;3.03;2.60;;;10.10;99.90;;;;;;4978151;28;20247;-82
2023/05/25 03:12:56;;;;;;;4.60;3.30;;;10.00;99.90;;;;;;4962139;28;20215;-84
2023/05/25 03:15:22;;;;;;;3.00;2.20;;;10.00;99.90;;;;;;5012282;28;20611;-82
2023/05/25 03:17:48;;;;;;;4.43;2.40;;;10.00;99.90;;;;;;4994093;28;20187;-85
2023/05/25 03:20:15;;;;;;;4.23;1.37;;;10.10;99.90;;;;;;4994583;28;20291;-85
2023/05/25 03:22:42;;;;;;;3.27;2.33;;;10.10;99.90;;;;;;4994194;28;20290;-86
2023/05/25 03:25:11;;;;;;;7.70;2.27;;;10.20;99.90;;;;;;5011798;28;20766;-83
2023/05/25 03:27:37;;;;;;;6.43;3.53;;;10.20;99.90;;;;;;4963105;28;20277;-84
2023/05/25 03:30:04;;;;;;;2.40;2.07;;;10.20;99.90;;;;;;4994669;28;20215;-87
2023/05/25 03:32:31;;;;;;;5.73;2.40;;;10.20;99.90;;;;;;4994398;28;20327;-84
2023/05/25 03:34:56;;;;;;;6.87;2.67;;;10.20;99.90;;;;;;4994331;28;20273;-85
2023/05/25 03:37:22;;;;;;;2.47;2.27;;;10.20;99.90;;;;;;5010619;28;20246;-89
2023/05/25 03:39:48;;;;;;;2.10;1.90;;;10.10;99.90;;;;;;5008754;28;20219;-86
2023/05/25 03:42:14;;;;;;;3.53;2.80;;;10.20;99.90;;;;;;4976361;28;20288;-91
2023/05/25 03:44:39;;;;;;;3.27;2.83;;;10.30;99.90;;;;;;4960612;28;20570;-89
2023/05/25 03:47:05;;;;;;;6.80;3.23;;;10.30;99.90;;;;;;4976836;28;20245;-89
2023/05/25 03:49:31;;;;;;;9.20;2.50;;;10.30;99.90;;;;;;4993312;28;20586;-85
2023/05/25 03:51:59;;;;;;;5.57;2.73;;;10.30;99.90;;;;;;4992703;28;20222;-84
2023/05/25 03:54:25;;;;;;;2.80;1.87;;;10.30;99.90;;;;;;4992538;28;20222;-83
2023/05/25 03:56:50;;;;;;;8.57;2.47;;;10.30;99.90;;;;;;4977067;28;20255;-83
2023/05/25 03:59:17;;;;;;;3.77;2.40;;;10.30;99.90;;;;;;4961455;28;20266;-83
2023/05/25 04:01:43;;;;;;;3.10;2.37;;;10.40;99.90;;;;;;4977055;28;20794;-85
2023/05/25 04:04:09;;;;;;;2.93;2.17;;;10.50;99.90;;;;;;5010873;28;20264;-83
2023/05/25 04:06:38;;;;;;;3.50;2.23;;;10.50;99.90;;;;;;4977075;28;20356;-86
2023/05/25 04:09:05;;;;;;;3.50;2.17;;;10.50;99.90;;;;;;4994024;28;20223;-82
2023/05/25 04:11:30;;;;;;;10.00;2.67;;;10.50;99.90;;;;;;5011523;28;20198;-88
2023/05/25 04:13:56;;;;;;;4.50;3.10;;;10.60;99.90;;;;;;4993670;28;20207;-83
2023/05/25 04:16:22;;;;;;;6.17;3.10;;;10.70;99.90;;;;;;4993478;28;20313;-84
2023/05/25 04:18:48;;;;;;;4.07;2.57;;;10.80;99.90;;;;;;4993662;28;20234;-85
2023/05/25 04:21:13;;;;;;;2.53;2.33;;;11.00;99.90;;;;;;4977541;28;20226;-83
2023/05/25 04:23:40;;;;;;;8.10;2.73;;;11.10;99.90;;;;;;4977221;28;20647;-91
2023/05/25 04:26:09;;;;;;;5.37;3.13;;;11.20;99.90;;;;;;4977790;28;20640;-82
2023/05/25 04:28:35;;;;;;;6.57;2.50;;;11.40;99.90;;;;;;4977682;28;20231;-82
2023/05/25 04:31:02;;;;;;;5.10;3.43;;;11.50;99.90;;;;;;4970527;28;20233;-84
2023/05/25 04:33:28;;;;;;;5.53;3.30;;;11.60;99.90;;;;;;4922669;28;20670;-85
2023/05/25 04:35:57;;;;;;;5.63;3.77;;;11.60;99.90;;;;;;4938236;28;20312;-82
2023/05/25 04:38:24;;;;;;;8.37;4.27;;;11.70;99.90;;;;;;4924241;28;20709;-85
2023/05/25 04:40:53;;;;;;;9.77;3.53;;;11.80;99.90;;;;;;4922793;28;20296;-88
2023/05/25 04:43:19;;;;;;;8.23;4.33;;;11.80;99.90;;;;;;4970331;28;20308;-86
2023/05/25 04:45:45;;;;;;;17.60;4.20;;;11.80;99.90;;;;;;4947900;28;20644;-82
2023/05/25 04:48:12;;;;;;;8.07;4.57;;;11.70;99.90;;;;;;4954413;28;20208;-84
2023/05/25 04:50:41;;;;;;;10.67;4.57;;;11.80;99.90;;;;;;4937699;28;20269;-87
2023/05/25 04:53:07;;;;;;;5.70;2.97;;;11.80;99.90;;;;;;4955249;28;20188;-87
2023/05/25 04:55:33;;;;;;;10.57;4.87;;;11.90;99.90;;;;;;4970015;28;20646;-82
2023/05/25 04:57:58;;;;;;;4.10;3.20;;;12.00;99.90;;;;;;4938019;28;20228;-85
2023/05/25 05:00:24;;;;;;;13.00;4.60;;;12.00;99.90;;;;;;4970036;28;20240;-83
2023/05/25 05:02:50;;;;;;;5.47;4.00;;;12.10;99.90;;;;;;4921795;28;20188;-85
2023/05/25 05:05:16;;;;;;;9.83;4.80;;;12.20;99.90;;;;;;4971902;28;20184;-82
2023/05/25 05:07:42;;;;;;;6.40;4.57;;;12.30;99.90;;;;;;4938094;28;20232;-85
2023/05/25 05:10:08;;;;;;;6.10;2.77;;;12.50;99.90;;;;;;4938183;28;20669;-84
2023/05/25 05:12:34;;;;;;;5.73;3.30;;;12.70;99.90;;;;;;4969753;28;20669;-84
2023/05/25 05:15:00;;;;;;;3.80;2.80;;;12.70;99.90;;;;;;4969935;28;20217;-87
2023/05/25 05:17:27;;;;;;;10.40;4.27;;;12.80;99.90;;;;;;4926967;28;20220;-89
2023/05/25 05:19:53;;;;;;;6.27;3.27;;;12.90;99.90;;;;;;4938569;28;20252;-84
2023/05/25 05:22:19;;;;;;;5.47;4.10;;;12.90;99.90;;;;;;4938370;28;20239;-86
2023/05/25 05:24:45;;;;;;;4.33;2.73;;;13.00;99.90;;;;;;4969823;28;20705;-89
2023/05/25 05:27:13;;;;;;;6.23;3.57;;;13.00;99.90;;;;;;4954220;28;20232;-82
2023/05/25 05:29:39;;;;;;;4.77;2.60;;;13.00;99.90;;;;;;4970611;28;20212;-82
2023/05/25 05:32:06;;;;;;;12.63;3.43;;;13.20;99.90;;;;;;4961580;28;20256;-85
2023/05/25 05:34:32;;;;;;;5.47;2.60;;;13.30;99.90;;;;;;4970205;28;20305;-85
2023/05/25 05:37:01;;;;;;;5.93;2.10;;;13.30;99.90;;;;;;4954192;28;20777;-87
2023/05/25 05:39:26;;;;;;;6.30;2.83;;;13.30;99.90;;;;;;4969425;28;20255;-88
2023/05/25 05:41:53;;;;;;;9.10;2.83;;;13.40;99.90;;;;;;4952915;28;20666;-83
2023/05/25 05:44:22;;;;;;;4.43;2.40;;;13.50;99.90;;;;;;4956377;28;20188;-85
2023/05/25 05:46:48;;;;;;;4.93;2.87;;;13.50;99.90;;;;;;4973916;28;20220;-86
2023/05/25 05:49:14;;;;;;;9.13;2.43;;;13.60;99.90;;;;;;4942061;28;20320;-86
2023/05/25 05:51:40;;;;;;;3.90;2.13;;;13.70;99.90;;;;;;4957846;28;20219;-86
2023/05/25 05:54:06;;;;;;;5.03;2.17;;;13.60;99.90;;;;;;4941763;28;20208;-87
2023/05/25 05:56:31;;;;;;;4.27;1.50;;;13.60;99.90;;;;;;4957636;28;20305;-84
2023/05/25 05:58:57;;;;;;;8.43;2.40;;;13.60;99.90;;;;;;4975887;28;20215;-88
2023/05/25 06:01:24;;;;;;;9.23;2.47;;;13.80;99.90;;;;;;4973953;28;20274;-87
2023/05/25 06:03:51;;;;;;;2.30;1.63;;;13.90;99.90;;;;;;4973976;28;20220;-89
2023/05/25 06:06:17;;;;;;;6.77;1.90;;;14.00;99.90;;;;;;4973714;28;20227;-88
2023/05/25 06:08:43;;;;;;;5.30;2.00;;;14.00;99.90;;;;;;4941886;28;20176;-84
2023/05/25 06:11:09;;;;;;;2.17;1.37;;;14.00;99.90;;;;;;4958410;28;20779;-90
2023/05/25 06:13:35;;;;;;;2.43;1.10;;;14.00;99.90;;;;;;4957441;28;20785;-86
2023/05/25 06:16:01;;;;;;;1.70;1.57;;;13.90;99.90;;;;;;4941247;28;20263;-83
2023/05/25 06:18:26;;;;;;;8.00;2.30;;;14.00;99.90;;;;;;4940606;28;20794;-82
2023/05/25 06:20:52;;;;;;;2.33;2.07;;;14.20;99.90;;;;;;4955298;28;20701;-85
2023/05/25 06:23:18;;;;;;;3.03;1.50;;;14.30;99.90;;;;;;4973010;28;20209;-81
2023/05/25 06:25:45;;;;;;;5.13;2.37;;;14.30;99.90;;;;;;4957193;28;20682;-86
2023/05/25 06:28:11;;;;;;;3.87;2.13;;;14.40;99.90;;;;;;4972487;28;20700;-84
2023/05/25 06:30:37;;;;;;;2.20;1.20;;;14.50;99.90;;;;;;4974840;28;20224;-88
2023/05/25 06:33:02;;;;;;;2.50;1.87;;;14.40;99.90;;;;;;4985547;28;20845;-83
2023/05/25 06:35:28;;;;;;;4.47;1.03;;;14.40;99.90;;;;;;5011941;28;20190;-86
2023/05/25 06:37:55;;;;;;;16.17;2.63;;;14.30;99.90;;;;;;4979010;28;20207;-87
2023/05/25 06:40:21;;;;;;;4.07;1.87;;;14.30;99.90;;;;;;5012903;28;20315;-82
2023/05/25 06:42:47;;;;;;;1.33;1.13;;;14.30;99.90;;;;;;5012739;28;20698;-84
2023/05/25 06:45:12;;;;;;;7.10;1.37;;;14.10;99.90;;;;;;4995246;28;20222;-84
2023/05/25 06:47:38;;;;;;;4.07;1.43;;;14.20;99.90;;;;;;4979256;28;20553;-84
2023/05/25 06:50:05;;;;;;;3.93;1.20;;;14.10;99.90;;;;;;4980055;28;20183;-85
2023/05/25 06:52:31;;;;;;;6.80;1.87;;;14.20;99.90;;;;;;4979465;28;20223;-86
2023/05/25 06:54:57;;;;;;;8.80;2.10;;;14.50;99.90;;;;;;4994999;28;20223;-86
2023/05/25 06:57:23;;;;;;;7.17;2.20;;;14.50;99.90;;;;;;5011325;28;20816;-83
2023/05/25 06:59:49;;;;;;;3.53;1.20;;;14.50;99.90;;;;;;4994929;28;20266;-85
2023/05/25 07:02:15;;;;;;;5.20;1.60;;;14.50;99.90;;;;;;4963099;28;20179;-88
2023/05/25 07:04:40;;;;;;;4.00;1.97;;;14.60;99.90;;;;;;4994693;28;20567;-83
2023/05/25 07:07:08;;;;;;;7.23;1.80;;;14.40;99.90;;;;;;4979019;28;20227;-88
2023/05/25 07:09:34;;;;;;;9.77;2.10;;;14.50;99.90;;;;;;4995078;28;20211;-85
2023/05/25 07:12:00;;;;;;;6.13;2.00;;;14.50;99.90;;;;;;4978741;28;20581;-86
2023/05/25 07:14:25;;;;;;;2.70;2.23;;;14.50;99.90;;;;;;4979359;28;20195;-85
2023/05/25 07:16:51;;;;;;;2.67;1.40;;;14.60;99.90;;;;;;4962012;28;20227;-87
2023/05/25 07:19:17;;;;;;;5.93;1.47;;;14.70;99.90;;;;;;4977947;28;20226;-85
2023/05/25 07:21:43;;;;;;;3.43;1.00;;;14.70;99.90;;;;;;4993754;28;20486;-84
2023/05/25 07:24:08;;;;;;;8.73;2.63;;;14.80;99.90;;;;;;4977931;28;20238;-83
2023/05/25 07:26:35;;;;;;;8.20;2.67;;;14.60;99.90;;;;;;4993974;28;20195;-86
2023/05/25 07:29:01;;;;;;;7.27;1.97;;;14.70;99.90;;;;;;4978227;28;20199;-85
2023/05/25 07:31:27;;;;;;;3.00;1.43;;;14.90;99.90;;;;;;4961603;28;20242;-88
2023/05/25 07:33:54;;;;;;;3.37;1.10;;;15.30;99.90;;;;;;4993856;28;20227;-84
2023/05/25 07:36:20;;;;;;;9.50;1.87;;;15.40;99.90;;;;;;5011235;28;20227;-85
2023/05/25 07:38:46;;;;;;;11.93;1.77;;;15.20;99.90;;;;;;4993843;28;20265;-86
2023/05/25 07:41:12;;;;;;;6.23;2.40;;;15.80;99.90;;;;;;4978358;28;20172;-83
2023/05/25 07:43:39;;;;;;;6.10;1.43;;;16.30;99.90;;;;;;4977878;28;20439;-82
2023/05/25 07:46:05;;;;;;;13.03;2.90;;;16.50;99.90;;;;;;4993984;28;20297;-84
2023/05/25 07:48:31;;;;;;;6.20;1.50;;;16.50;99.90;;;;;;4977516;28;20219;-87
2023/05/25 07:50:56;;;;;;;8.20;2.37;;;16.70;99.90;;;;;;4961818;28;20215;-85
2023/05/25 07:53:22;;;;;;;6.10;1.60;;;17.70;99.90;;;;;;4994799;28;20588;-86
2023/05/25 07:55:48;;;;;;;4.67;2.30;;;18.20;99.90;;;;;;4994086;28;20212;-83
2023/05/25 07:58:14;;;;;;;5.07;1.80;;;18.50;99.90;;;;;;4993917;28;20220;-87
2023/05/25 08:00:40;;;;;;;8.33;2.87;;;18.40;99.90;;;;;;4976666;28;20685;-90
2023/05/25 08:03:05;;;;;;;9.97;2.57;;;18.00;99.90;;;;;;5009879;28;20215;-84
2023/05/25 08:05:31;;;;;;;3.67;1.73;;;18.90;99.90;;;;;;4960577;28;20538;-83
2023/05/25 08:07:57;;;;;;;10.37;2.20;;;19.50;99.90;;;;;;4992193;28;20274;-83
2023/05/25 08:10:30;;;;;;;9.67;1.70;;;19.30;99.90;;;;;;4979378;28;20630;-88
2023/05/25 08:12:56;;;;;;;3.20;1.77;;;18.50;99.90;;;;;;4977983;28;20219;-85
2023/05/25 08:15:21;;;;;;;5.30;2.80;;;17.40;99.90;;;;;;4992822;28;20265;-84
2023/05/25 08:17:51;;;;;;;4.77;1.57;;;17.60;99.90;;;;;;4959606;28;20695;-88
2023/05/25 08:20:16;;;;;;;9.60;2.00;;;17.90;99.90;;;;;;4992358;28;20194;-87
2023/05/25 08:22:42;;;;;;;4.83;1.20;;;18.70;99.90;;;;;;4996687;28;20790;-86
2023/05/25 08:25:08;;;;;;;3.73;1.77;;;19.30;99.90;;;;;;4987933;28;20464;-85
2023/05/25 08:27:35;;;;;;;8.87;2.80;;;19.30;99.90;;;;;;4993260;28;20223;-86
2023/05/25 08:30:01;;;;;;;2.80;1.37;;;19.10;99.90;;;;;;4978955;28;20241;-88
2023/05/25 08:32:26;;;;;;;8.80;2.07;;;19.10;99.90;;;;;;4978408;28;20334;-84
2023/05/25 08:34:52;;;;;;;3.40;2.00;;;19.70;99.90;;;;;;4978112;28;20687;-87
2023/05/25 08:37:20;;;;;;;3.57;1.53;;;19.30;99.90;;;;;;4976444;28;20234;-83
2023/05/25 08:39:46;;;;;;;10.60;2.63;;;19.20;99.90;;;;;;5009859;28;20239;-87
2023/05/25 08:42:11;;;;;;;8.07;2.53;;;18.50;99.90;;;;;;4992604;28;20269;-86
2023/05/25 08:44:37;;;;;;;5.53;1.93;;;18.20;99.90;;;;;;4960594;28;20625;-83
2023/05/25 08:47:09;;;;;;;9.50;2.50;;;18.30;99.90;;;;;;4976989;28;20644;-85
2023/05/25 08:49:37;;;;;;;2.43;1.23;;;18.60;99.90;;;;;;4992958;28;20320;-86
2023/05/25 08:52:04;;;;;;;9.23;2.07;;;18.80;99.90;;;;;;5009033;28;20393;-84
2023/05/25 08:54:34;;;;;;;6.37;2.17;;;18.40;99.90;;;;;;4997653;28;20310;-87
2023/05/25 08:57:25;;;;;;;7.40;2.67;;;18.10;99.90;;;;;;5003844;28;20234;-84
2023/05/25 09:00:10;;;;;;;6.07;2.30;;;18.10;99.90;;;;;;4994076;28;20183;-83
2023/05/25 09:03:16;;;;;;;8.63;2.23;;;18.90;99.90;;;;;;4977220;28;20214;-87
2023/05/25 09:05:43;;;;;;;8.87;2.40;;;20.10;99.90;;;;;;4995042;28;20167;-88
2023/05/25 09:08:10;;;;;;;5.30;2.10;;;20.40;99.90;;;;;;4999422;28;20644;-85
2023/05/25 09:10:37;;;;;;;3.20;1.87;;;20.30;99.90;;;;;;4977278;28;20227;-85
2023/05/25 09:13:04;;;;;;;4.93;2.00;;;19.60;99.90;;;;;;5008801;28;20211;-86
2023/05/25 09:15:34;;;;;;;4.07;2.10;;;19.40;99.90;;;;;;5009215;28;20230;-85
2023/05/25 09:18:00;;;;;;;3.40;1.40;;;19.90;99.90;;;;;;4992738;28;20229;-85
2023/05/25 09:20:30;;;;;;;4.13;1.40;;;19.30;99.90;;;;;;4993766;28;20199;-83
2023/05/25 09:22:59;;;;;;;9.10;2.77;;;19.00;99.90;;;;;;5010030;28;20215;-82
2023/05/25 09:25:27;;;;;;;10.83;3.07;;;18.90;99.90;;;;;;4992564;28;20219;-84
2023/05/25 09:27:55;;;;;;;2.60;1.40;;;18.80;99.90;;;;;;4992091;28;20303;-83
2023/05/25 09:30:21;;;;;;;7.70;2.20;;;19.40;99.90;;;;;;4995223;28;20302;-84
2023/05/25 09:32:47;;;;;;;13.40;2.93;;;19.10;99.90;;;;;;5010367;28;20739;-83
2023/05/25 09:35:14;;;;;;;7.57;2.30;;;17.60;99.90;;;;;;4960026;28;20210;-84
2023/05/25 09:37:41;;;;;;;3.50;2.27;;;17.40;99.90;;;;;;4975472;28;20462;-83
2023/05/25 09:40:08;;;;;;;9.73;2.00;;;16.60;99.90;;;;;;5008884;28;20214;-83
2023/05/25 09:42:34;;;;;;;2.23;1.53;;;16.30;99.90;;;;;;4991079;28;20738;-87
2023/05/25 09:45:04;;;;;;;5.30;1.60;;;16.60;99.90;;;;;;4975284;28;20215;-85
2023/05/25 09:47:30;;;;;;;9.63;2.30;;;17.90;99.90;;;;;;4992154;28;20614;-83
2023/05/25 09:49:57;;;;;;;14.40;2.30;;;19.10;99.90;;;;;;4982609;28;20220;-84
2023/05/25 09:52:24;;;;;;;10.57;1.83;;;19.50;99.90;;;;;;4976297;28;20215;-84
2023/05/25 09:54:51;;;;;;;9.57;2.13;;;19.50;99.90;;;;;;4992276;28;20427;-85
2023/05/25 09:57:20;;;;;;;5.90;2.30;;;19.10;99.90;;;;;;4992337;28;20223;-86
2023/05/25 09:59:46;;;;;;;7.20;1.87;;;17.60;99.90;;;;;;4976203;28;20175;-83
2023/05/25 10:02:13;;;;;;;7.97;2.93;;;16.40;99.90;;;;;;4992814;28;20183;-83
2023/05/25 10:04:39;;;;;;;6.37;1.97;;;16.10;99.90;;;;;;4992652;28;20223;-85
2023/05/25 10:07:05;;;;;;;8.20;2.57;;;16.00;99.90;;;;;;4992345;28;20219;-83
2023/05/25 10:09:37;;;;;;;11.53;3.50;;;16.80;99.90;;;;;;4960655;28;20306;-84
2023/05/25 10:12:03;;;;;;;3.80;2.03;;;16.90;99.90;;;;;;4992216;28;20215;-84
2023/05/25 10:14:30;;;;;;;6.80;2.30;;;17.00;99.90;;;;;;4977274;28;20212;-84
2023/05/25 10:16:58;;;;;;;13.87;2.60;;;16.50;99.90;;;;;;4992579;28;20251;-85
2023/05/25 10:19:41;;;;;;;5.03;2.30;;;16.10;99.90;;;;;;5010308;28;20234;-84
2023/05/25 10:22:16;;;;;;;11.30;2.17;;;16.20;99.90;;;;;;4992757;28;20226;-84
2023/05/25 10:25:15;;;;;;;4.83;1.67;;;16.30;99.90;;;;;;4993110;28;20218;-83
2023/05/25 10:27:46;;;;;;;4.50;1.80;;;16.50;99.90;;;;;;4993075;28;20223;-84
2023/05/25 10:30:13;;;;;;;7.03;2.27;;;18.00;99.90;;;;;;4993050;28;20598;-83
2023/05/25 10:32:41;;;;;;;7.87;1.70;;;18.00;99.90;;;;;;4973818;28;20233;-83
2023/05/25 10:35:09;;;;;;;4.77;1.63;;;18.00;99.90;;;;;;4974679;28;20208;-85
2023/05/25 10:37:36;;;;;;;5.50;2.07;;;17.60;99.90;;;;;;4974609;28;20244;-84
2023/05/25 10:40:02;;;;;;;12.23;2.37;;;17.00;99.90;;;;;;4957959;28;20280;-84
2023/05/25 10:42:28;;;;;;;5.87;1.30;;;17.70;99.90;;;;;;4990028;28;20217;-84
2023/05/25 10:44:56;;;;;;;5.93;1.50;;;17.80;99.90;;;;;;4957792;28;20228;-82
2023/05/25 10:47:22;;;;;;;2.50;1.37;;;18.00;99.90;;;;;;4958492;28;20797;-83
2023/05/25 10:49:54;;;;;;;5.57;1.70;;;17.70;99.90;;;;;;4942315;28;20223;-83
2023/05/25 10:52:20;;;;;;;3.23;1.57;;;17.20;99.90;;;;;;4973926;28;20240;-84
2023/05/25 10:54:47;;;;;;;7.40;2.50;;;17.70;99.90;;;;;;4926241;28;20303;-85
2023/05/25 10:57:20;;;;;;;6.57;2.20;;;17.50;99.90;;;;;;4973893;28;20261;-84
2023/05/25 10:59:53;;;;;;;7.33;2.50;;;17.00;99.90;;;;;;4973797;28;20188;-86
2023/05/25 11:02:22;;;;;;;10.80;1.87;;;16.30;99.90;;;;;;4943278;28;20188;-83
2023/05/25 11:04:49;;;;;;;5.83;2.37;;;16.20;99.90;;;;;;4974190;28;20232;-84
2023/05/25 11:07:18;;;;;;;11.27;2.43;;;16.10;99.90;;;;;;4973888;28;20263;-84
2023/05/25 11:09:56;;;;;;;4.47;1.63;;;16.20;99.90;;;;;;4975578;28;20246;-83
2023/05/25 11:12:22;;;;;;;9.97;2.70;;;16.50;99.90;;;;;;4974237;28;20339;-85
2023/05/25 11:15:16;;;;;;;8.77;1.90;;;16.90;99.90;;;;;;4973939;28;20268;-83
2023/05/25 11:18:13;;;;;;;7.10;2.17;;;17.30;99.90;;;;;;4973213;28;20231;-83
2023/05/25 11:20:39;;;;;;;10.27;1.87;;;16.80;99.90;;;;;;4954359;28;20279;-85
2023/05/25 11:23:23;;;;;;;5.93;2.97;;;17.00;99.90;;;;;;4926071;28;20595;-82
2023/05/25 11:25:49;;;;;;;3.53;1.73;;;17.00;99.90;;;;;;4941303;28;20220;-84
2023/05/25 11:28:15;;;;;;;7.80;2.23;;;16.90;99.90;;;;;;4955903;28;20741;-86
2023/05/25 11:30:41;;;;;;;7.27;1.70;;;17.50;99.90;;;;;;4958796;28;20457;-82
2023/05/25 11:33:07;;;;;;;4.87;1.87;;;17.10;99.90;;;;;;4978927;28;20306;-82
2023/05/25 11:35:37;;;;;;;10.30;1.63;;;16.50;99.90;;;;;;4963172;28;20267;-84
2023/05/25 11:38:05;;;;;;;9.93;2.40;;;16.20;99.90;;;;;;4995980;28;20269;-84
2023/05/25 11:40:31;;;;;;;14.80;2.93;;;17.00;99.90;;;;;;4994095;28;20701;-82
2023/05/25 11:42:59;;;;;;;4.73;1.93;;;17.60;99.90;;;;;;4994296;28;20230;-85
2023/05/25 11:45:28;;;;;;;7.77;2.77;;;17.60;99.90;;;;;;4994954;28;20215;-84
2023/05/25 11:47:54;;;;;;;6.23;2.83;;;17.30;99.90;;;;;;4994444;28;20249;-84
2023/05/25 11:50:20;;;;;;;9.73;2.90;;;16.80;99.90;;;;;;4995213;28;20183;-84
2023/05/25 11:52:46;;;;;;;7.10;3.00;;;17.30;99.90;;;;;;4978758;28;20234;-83
2023/05/25 11:55:15;;;;;;;8.97;1.93;;;17.00;99.90;;;;;;4978649;28;20219;-82
2023/05/25 11:57:41;;;;;;;13.33;1.90;;;16.60;99.90;;;;;;4994017;28;20242;-85
2023/05/25 12:00:10;;;;;;;8.70;2.03;;;16.30;99.90;;;;;;4977079;28;20215;-85
2023/05/25 12:02:42;;;;;;;8.70;2.17;;;16.20;99.90;;;;;;4993656;28;20191;-85
2023/05/25 12:05:08;;;;;;;8.40;2.13;;;16.10;99.90;;;;;;5009868;28;20209;-84
2023/05/25 12:07:40;;;;;;;16.60;4.27;;;16.40;99.90;;;;;;4993228;28;20227;-86
2023/05/25 12:10:08;;;;;;;9.53;3.10;;;16.70;99.90;;;;;;4982075;28;20238;-85
2023/05/25 12:12:40;;;;;;;3.73;2.00;;;16.50;99.90;;;;;;4985654;28;20225;-88
2023/05/25 12:15:09;;;;;;;6.33;1.80;;;16.40;99.90;;;;;;4977876;28;20223;-88
2023/05/25 12:17:35;;;;;;;7.57;3.27;;;16.50;99.90;;;;;;4977077;28;20215;-84
2023/05/25 12:20:02;;;;;;;11.93;2.17;;;15.90;99.90;;;;;;4994647;28;20188;-87
2023/05/25 12:22:28;;;;;;;4.23;1.83;;;15.80;99.90;;;;;;4978640;28;20219;-87
2023/05/25 12:24:54;;;;;;;5.60;1.47;;;15.90;99.90;;;;;;4961735;28;20668;-89
2023/05/25 12:27:23;;;;;;;6.87;1.90;;;15.70;99.90;;;;;;4978223;28;20215;-87
2023/05/25 12:29:49;;;;;;;6.53;1.60;;;15.60;99.90;;;;;;4994816;28;20206;-88
2023/05/25 12:32:15;;;;;;;3.50;1.73;;;15.50;99.90;;;;;;4978680;28;20269;-88
2023/05/25 12:34:40;;;;;;;9.23;2.23;;;15.60;99.90;;;;;;4977775;28;20277;-88
2023/05/25 12:37:18;;;;;;;5.57;1.53;;;15.80;99.90;;;;;;4962278;28;20235;-90
2023/05/25 12:39:44;;;;;;;6.17;1.90;;;16.00;99.90;;;;;;4994097;28;20250;-87
2023/05/25 12:42:15;;;;;;;11.53;2.30;;;15.70;99.90;;;;;;4977454;28;20211;-87
2023/05/25 12:44:42;;;;;;;7.97;2.50;;;15.90;99.90;;;;;;4993835;28;20172;-87
2023/05/25 12:47:22;;;;;;;19.10;1.53;;;15.70;99.90;;;;;;4994807;28;20274;-87
2023/05/25 12:49:52;;;;;;;7.97;2.20;;;15.90;99.90;;;;;;4994067;28;20211;-86
2023/05/25 12:52:38;;;;;;;5.60;2.27;;;15.50;99.90;;;;;;4993875;28;20757;-88